Time;durP1;ratioP1;P1;durP2;ratioP2;P2;SDS_P1;SDS_P2;PMS_P1;PMS_P2;Temp;Humidity;BMP_temperature;BMP_pressure;BME280_temperature;BME280_humidity;BME280_pressure;Samples;Min_cycle;Max_cycle;Signal;HPM_P1;HPM_P2
2021/07/02 00:00:11;;;;;;;;;;;;;;;25.32;60.16;100970.69;5046736;28;1527;-69
2021/07/02 00:02:57;;;;;;;;;;;;;;;25.35;59.79;100980.28;5048741;28;1316;-68
2021/07/02 00:05:42;;;;;;;;;;;;;;;25.33;59.85;100969.75;5049173;28;766;-69
2021/07/02 00:08:28;;;;;;;;;;;;;;;25.31;59.91;100973.50;5049036;28;1902;-69
2021/07/02 00:11:13;;;;;;;;;;;;;;;25.32;60.51;100973.38;5029198;28;656;-70
2021/07/02 00:13:58;;;;;;;;;;;;;;;25.30;60.50;100966.47;5029327;28;1071;-69
2021/07/02 00:16:44;;;;;;;;;;;;;;;25.32;59.69;100964.53;5028915;28;1294;-69
2021/07/02 00:19:32;;;;;;;;;;;;;;;25.31;59.70;100973.50;5029414;28;1340;-70
2021/07/02 00:22:17;;;;;;;;;;;;;;;25.29;59.59;100970.94;5030105;28;1243;-69
2021/07/02 00:25:03;;;;;;;;;;;;;;;25.23;60.65;100968.78;5042541;28;640;-69
2021/07/02 00:27:49;;;;;;;;;;;;;;;25.26;60.55;100960.53;5028767;28;1879;-69
2021/07/02 00:30:34;;;;;;;;;;;;;;;25.27;59.75;100966.72;5028818;28;656;-70
2021/07/02 00:33:19;;;;;;;;;;;;;;;25.26;60.19;100955.19;5029007;28;1264;-71
2021/07/02 00:36:05;;;;;;;;;;;;;;;25.26;58.76;100967.72;5028655;28;640;-70
2021/07/02 00:38:50;;;;;;;;;;;;;;;25.21;59.64;100960.06;5028736;28;1279;-69
2021/07/02 00:41:35;;;;;;;;;;;;;;;25.22;59.62;100963.59;5028946;28;1302;-70
2021/07/02 00:44:39;;;;;;;;;;;;;;;25.22;58.85;100961.78;5029196;28;988;-70
2021/07/02 00:47:24;;;;;;;;;;;;;;;25.20;59.43;100957.53;5028047;28;2236;-69
2021/07/02 00:50:10;;;;;;;;;;;;;;;25.19;59.49;100959.34;5028718;28;621;-69
2021/07/02 00:52:56;;;;;;;;;;;;;;;25.21;57.99;100959.22;5028410;28;1298;-69
2021/07/02 00:55:42;;;;;;;;;;;;;;;25.22;58.68;100960.91;5028642;28;605;-70
2021/07/02 00:58:33;;;;;;;;;;;;;;;25.17;58.77;100955.13;5028807;28;1295;-70
2021/07/02 01:01:19;;;;;;;;;;;;;;;25.22;58.06;100955.59;5028366;28;679;-70
2021/07/02 01:04:04;;;;;;;;;;;;;;;25.14;59.17;100948.19;5028838;28;903;-63
2021/07/02 01:06:51;;;;;;;;;;;;;;;25.15;58.61;100938.38;5028190;28;1422;-63
2021/07/02 01:09:37;;;;;;;;;;;;;;;25.16;58.67;100943.59;5028561;28;1029;-64
2021/07/02 01:12:22;;;;;;;;;;;;;;;25.16;59.12;100942.75;5028071;28;1244;-64
2021/07/02 01:15:28;;;;;;;;;;;;;;;25.11;58.71;100935.13;5041105;28;631;-63
2021/07/02 01:18:13;;;;;;;;;;;;;;;25.15;58.76;100935.72;5028194;28;1561;-64
2021/07/02 01:20:58;;;;;;;;;;;;;;;25.09;58.98;100934.41;5028272;28;631;-63
2021/07/02 01:23:44;;;;;;;;;;;;;;;25.09;58.08;100928.22;5027982;28;1288;-64
2021/07/02 01:26:29;;;;;;;;;;;;;;;25.07;58.50;100924.84;5027998;28;602;-63
2021/07/02 01:29:15;;;;;;;;;;;;;;;25.08;58.28;100924.69;5028091;28;1902;-64
2021/07/02 01:32:00;;;;;;;;;;;;;;;25.09;58.08;100918.41;5028077;28;1377;-63
2021/07/02 01:34:46;;;;;;;;;;;;;;;25.06;57.90;100913.31;5028570;28;1064;-63
2021/07/02 01:37:31;;;;;;;;;;;;;;;25.06;58.14;100916.00;5028430;28;1273;-63
2021/07/02 01:40:16;;;;;;;;;;;;;;;25.02;58.20;100914.53;5028205;28;579;-62
2021/07/02 01:43:02;;;;;;;;;;;;;;;25.07;58.18;100915.03;5028258;28;1362;-63
2021/07/02 01:45:47;;;;;;;;;;;;;;;25.05;58.05;100921.47;5027963;28;711;-64
2021/07/02 01:48:33;;;;;;;;;;;;;;;25.05;58.03;100922.28;5028186;28;1894;-63
2021/07/02 01:51:18;;;;;;;;;;;;;;;25.08;58.06;100916.69;5028135;28;665;-63
2021/07/02 01:54:04;;;;;;;;;;;;;;;25.06;58.90;100913.31;5028289;28;1400;-63
2021/07/02 01:56:50;;;;;;;;;;;;;;;25.04;58.74;100919.75;5028722;28;1284;-63
2021/07/02 01:59:35;;;;;;;;;;;;;;;25.03;58.86;100916.25;5032287;28;1157;-63
2021/07/02 02:02:21;;;;;;;;;;;;;;;25.02;58.87;100914.53;5044614;28;1318;-62
2021/07/02 02:05:06;;;;;;;;;;;;;;;25.02;59.19;100914.53;5032175;28;600;-64
2021/07/02 02:07:52;;;;;;;;;;;;;;;25.03;59.19;100910.91;5031565;28;1984;-64
2021/07/02 02:10:37;;;;;;;;;;;;;;;24.99;58.74;100914.78;5044893;28;706;-62
2021/07/02 02:13:22;;;;;;;;;;;;;;;25.00;58.77;100903.16;5031605;28;1253;-64
2021/07/02 02:16:08;;;;;;;;;;;;;;;25.00;58.51;100909.34;5044355;28;1015;-63
2021/07/02 02:18:53;;;;;;;;;;;;;;;25.02;58.67;100911.06;5031370;28;1286;-64
2021/07/02 02:21:38;;;;;;;;;;;;;;;25.00;58.69;100904.00;5031702;28;1294;-63
2021/07/02 02:24:24;;;;;;;;;;;;;;;24.98;58.33;100902.44;5031662;28;1062;-63
2021/07/02 02:27:09;;;;;;;;;;;;;;;25.02;58.26;100910.06;5031545;28;1268;-64
2021/07/02 02:29:55;;;;;;;;;;;;;;;25.00;57.90;100903.16;5031282;28;663;-63
2021/07/02 02:32:41;;;;;;;;;;;;;;;24.97;58.42;100906.06;5031465;28;1375;-63
2021/07/02 02:35:26;;;;;;;;;;;;;;;24.97;57.98;100898.09;5031489;28;608;-63
2021/07/02 02:38:11;;;;;;;;;;;;;;;24.95;58.12;100900.03;5031090;28;1294;-63
2021/07/02 02:40:56;;;;;;;;;;;;;;;24.94;58.08;100901.00;5031571;28;711;-64
2021/07/02 02:43:42;;;;;;;;;;;;;;;24.93;57.98;100899.28;5031060;28;1234;-63
2021/07/02 02:46:28;;;;;;;;;;;;;;;24.94;57.92;100901.00;5030855;28;644;-63
2021/07/02 02:49:13;;;;;;;;;;;;;;;24.90;58.10;100897.72;5031116;28;1961;-62
2021/07/02 02:51:59;;;;;;;;;;;;;;;24.89;58.18;100893.38;5030765;28;1308;-62
2021/07/02 02:54:44;;;;;;;;;;;;;;;24.88;58.27;100897.00;5030881;28;919;-62
2021/07/02 02:57:29;;;;;;;;;;;;;;;24.87;57.82;100903.28;5030846;28;1241;-63
2021/07/02 03:00:15;;;;;;;;;;;;;;;24.85;58.23;100901.72;5030719;28;627;-62
2021/07/02 03:03:01;;;;;;;;;;;;;;;24.87;57.90;100899.78;5030720;28;1294;-62
2021/07/02 03:05:49;;;;;;;;;;;;;;;24.87;57.76;100900.63;5043004;28;644;-63
2021/07/02 03:08:34;;;;;;;;;;;;;;;24.88;57.99;100906.81;5030047;28;1971;-64
2021/07/02 03:11:21;;;;;;;;;;;;;;;24.89;57.98;100904.03;5043824;28;715;-63
2021/07/02 03:14:07;;;;;;;;;;;;;;;24.88;57.76;100906.81;5030933;28;1138;-62
2021/07/02 03:16:53;;;;;;;;;;;;;;;24.85;58.04;100907.06;5030475;28;1228;-63
2021/07/02 03:19:38;;;;;;;;;;;;;;;24.86;58.05;100914.94;5030492;28;1115;-62
2021/07/02 03:22:24;;;;;;;;;;;;;;;24.88;58.53;100914.81;5030104;28;1496;-62
2021/07/02 03:25:10;;;;;;;;;;;;;;;24.86;59.11;100914.09;5030304;28;647;-61
2021/07/02 03:27:56;;;;;;;;;;;;;;;24.84;59.11;100919.53;5030307;28;1987;-62
2021/07/02 03:30:41;;;;;;;;;;;;;;;24.85;59.41;100920.38;5030657;28;684;-64
2021/07/02 03:33:26;;;;;;;;;;;;;;;24.80;59.19;100925.22;5030433;28;1276;-63
2021/07/02 03:36:12;;;;;;;;;;;;;;;24.79;59.41;100927.03;5029791;28;666;-62
2021/07/02 03:38:57;;;;;;;;;;;;;;;24.85;59.43;100928.38;5029931;28;983;-63
2021/07/02 03:41:43;;;;;;;;;;;;;;;24.88;58.84;100939.63;5030171;28;1386;-63
2021/07/02 03:44:28;;;;;;;;;;;;;;;24.85;58.48;100945.22;5030245;28;1131;-63
2021/07/02 03:47:13;;;;;;;;;;;;;;;24.81;58.54;100938.41;5030044;28;1279;-64
2021/07/02 03:49:58;;;;;;;;;;;;;;;24.80;58.61;100947.38;5029776;28;1915;-63
2021/07/02 03:52:43;;;;;;;;;;;;;;;24.78;58.88;100946.63;5029703;28;1291;-63
2021/07/02 03:55:28;;;;;;;;;;;;;;;24.81;58.25;100953.56;5030345;28;601;-63
2021/07/02 03:58:16;;;;;;;;;;;;;;;24.80;58.37;100957.19;5030142;28;1287;-61
2021/07/02 04:01:01;;;;;;;;;;;;;;;24.77;58.67;100957.41;5030004;28;656;-62
2021/07/02 04:03:46;;;;;;;;;;;;;;;24.76;58.34;100963.72;5029956;28;1372;-63
2021/07/02 04:06:32;;;;;;;;;;;;;;;24.76;58.08;100961.91;5029765;28;644;-63
2021/07/02 04:09:17;;;;;;;;;;;;;;;24.73;57.65;100962.13;5029766;28;1983;-63
2021/07/02 04:12:15;;;;;;;;;;;;;;;24.71;57.67;100964.09;5029555;28;1149;-63
2021/07/02 04:15:00;;;;;;;;;;;;;;;24.74;57.25;100960.31;5029731;28;734;-62
2021/07/02 04:17:45;;;;;;;;;;;;;;;24.74;57.49;100960.31;5042307;28;1385;-63
2021/07/02 04:20:31;;;;;;;;;;;;;;;24.70;57.33;100964.19;5028613;28;754;-63
2021/07/02 04:23:16;;;;;;;;;;;;;;;24.75;57.40;100967.31;5029640;28;1265;-63
2021/07/02 04:26:01;;;;;;;;;;;;;;;24.70;57.41;100967.72;5029904;28;736;-63
2021/07/02 04:28:47;;;;;;;;;;;;;;;24.71;57.65;100969.41;5042301;28;1910;-63
2021/07/02 04:31:32;;;;;;;;;;;;;;;24.75;57.41;100970.84;5029259;28;679;-63
2021/07/02 04:34:18;;;;;;;;;;;;;;;24.73;57.47;100970.13;5028947;28;1167;-64
2021/07/02 04:37:03;;;;;;;;;;;;;;;24.73;57.70;100971.94;5028943;28;1291;-64
2021/07/02 04:39:52;;;;;;;;;;;;;;;24.68;58.04;100972.31;5029062;28;632;-63
2021/07/02 04:42:39;;;;;;;;;;;;;;;24.65;58.22;100971.69;5028821;28;1434;-63
2021/07/02 04:45:24;;;;;;;;;;;;;;;24.67;58.33;100973.28;5029007;28;659;-64
2021/07/02 04:48:10;;;;;;;;;;;;;;;24.71;58.22;100976.56;5041829;28;1899;-63
2021/07/02 04:50:55;;;;;;;;;;;;;;;24.71;58.42;100973.88;5028664;28;632;-64
2021/07/02 04:53:42;;;;;;;;;;;;;;;24.72;58.55;100972.91;5029149;28;1367;-63
2021/07/02 04:56:28;;;;;;;;;;;;;;;24.65;58.48;100975.22;5029223;28;651;-63
2021/07/02 04:59:14;;;;;;;;;;;;;;;24.66;59.05;100970.72;5028705;28;1069;-64
2021/07/02 05:01:59;;;;;;;;;;;;;;;24.65;58.82;100975.22;5041189;28;1279;-64
2021/07/02 05:04:44;;;;;;;;;;;;;;;24.70;58.55;100975.69;5028394;28;1387;-64
2021/07/02 05:07:30;;;;;;;;;;;;;;;24.69;58.65;100975.81;5026873;28;1406;-64
2021/07/02 05:10:15;;;;;;;;;;;;;;;24.69;58.08;100978.47;5028522;28;1894;-64
2021/07/02 05:13:02;;;;;;;;;;;;;;;24.66;58.66;100970.72;5028428;28;1280;-64
2021/07/02 05:15:49;;;;;;;;;;;;;;;24.65;58.90;100985.03;5028716;28;616;-63
2021/07/02 05:18:34;;;;;;;;;;;;;;;24.62;58.95;100985.25;5028406;28;1504;-64
2021/07/02 05:21:19;;;;;;;;;;;;;;;24.67;58.96;100988.41;5040847;28;734;-63
2021/07/02 05:24:05;;;;;;;;;;;;;;;24.75;58.75;100991.31;5028557;28;1040;-64
2021/07/02 05:26:50;;;;;;;;;;;;;;;24.73;58.81;100987.91;5028150;28;1268;-63
2021/07/02 05:29:35;;;;;;;;;;;;;;;24.72;58.99;100991.53;5041111;28;1989;-63
2021/07/02 05:32:21;;;;;;;;;;;;;;;24.74;58.83;100982.50;5034088;28;1405;-63
2021/07/02 05:35:23;;;;;;;;;;;;;;;24.73;59.30;100986.09;5045391;28;762;-65
2021/07/02 05:38:08;;;;;;;;;;;;;;;24.72;59.23;100978.22;5034729;28;1280;-64
2021/07/02 05:40:57;;;;;;;;;;;;;;;24.76;59.26;100991.19;5034418;28;635;-66
2021/07/02 05:43:42;;;;;;;;;;;;;;;24.80;58.79;100999.81;5049532;28;1434;-67
2021/07/02 05:46:27;;;;;;;;;;;;;;;24.81;58.20;100991.72;5067496;28;611;-65
2021/07/02 05:49:14;;;;;;;;;;;;;;;24.81;58.33;100991.72;5052849;28;1898;-64
2021/07/02 05:51:59;;;;;;;;;;;;;;;24.81;58.20;100998.84;5055090;28;1280;-64
2021/07/02 05:54:48;;;;;;;;;;;;;;;24.84;57.53;100991.47;5054838;28;934;-67
2021/07/02 05:57:33;;;;;;;;;;;;;;;24.79;57.71;100987.44;5053378;28;1288;-66
2021/07/02 06:00:20;;;;;;;;;;;;;;;24.88;57.28;100997.41;5054376;28;616;-66
2021/07/02 06:03:05;;;;;;;;;;;;;;;24.85;57.21;100997.66;5036204;28;1303;-66
2021/07/02 06:05:51;;;;;;;;;;;;;;;24.82;57.06;100995.22;5033369;28;652;-66
2021/07/02 06:08:36;;;;;;;;;;;;;;;24.84;56.67;100995.94;5034241;28;1988;-67
2021/07/02 06:11:22;;;;;;;;;;;;;;;24.91;56.28;101006.00;5032557;28;672;-66
2021/07/02 06:14:08;;;;;;;;;;;;;;;24.94;55.57;101007.59;5032745;28;1073;-66
2021/07/02 06:16:53;;;;;;;;;;;;;;;24.92;55.25;101004.19;5033814;28;1366;-66
2021/07/02 06:19:39;;;;;;;;;;;;;;;24.90;54.75;101006.97;5034444;28;1642;-65
2021/07/02 06:22:24;;;;;;;;;;;;;;;24.96;54.85;101013.63;5034059;28;1240;-68
2021/07/02 06:25:10;;;;;;;;;;;;;;;24.97;54.25;101024.19;5032584;28;715;-67
2021/07/02 06:27:56;;;;;;;;;;;;;;;24.95;54.13;101019.94;5034243;28;1342;-69
2021/07/02 06:30:42;;;;;;;;;;;;;;;24.98;53.85;101019.69;5034337;28;715;-69
2021/07/02 06:33:28;;;;;;;;;;;;;;;24.95;54.21;101022.59;5032668;28;1223;-69
2021/07/02 06:36:13;;;;;;;;;;;;;;;24.99;54.25;101024.91;5032883;28;623;-68
2021/07/02 06:38:58;;;;;;;;;;;;;;;25.02;54.24;101025.66;5034036;28;963;-66
2021/07/02 06:41:43;;;;;;;;;;;;;;;25.04;54.54;101024.56;5032677;28;1369;-68
2021/07/02 06:44:29;;;;;;;;;;;;;;;25.05;54.27;101028.06;5029748;28;1146;-67
2021/07/02 06:47:14;;;;;;;;;;;;;;;25.04;53.05;101029.88;5030581;28;1385;-67
2021/07/02 06:49:59;;;;;;;;;;;;;;;25.07;53.46;101024.31;5030293;28;2001;-67
2021/07/02 06:52:44;;;;;;;;;;;;;;;25.07;52.33;101032.31;5030687;28;1276;-67
2021/07/02 06:55:30;;;;;;;;;;;;;;;25.11;52.30;101033.75;5030954;28;631;-65
2021/07/02 06:58:15;;;;;;;;;;;;;;;25.12;52.36;101034.59;5030671;28;1312;-66
2021/07/02 07:01:01;;;;;;;;;;;;;;;25.11;52.29;101036.41;5029391;28;759;-65
2021/07/02 07:03:46;;;;;;;;;;;;;;;25.13;52.69;101038.97;5030614;28;1268;-65
2021/07/02 07:06:32;;;;;;;;;;;;;;;25.15;51.80;101040.53;5030236;28;688;-66
2021/07/02 07:09:17;;;;;;;;;;;;;;;25.16;51.11;101042.25;5030252;28;1898;-65
2021/07/02 07:12:03;;;;;;;;;;;;;;;25.12;51.43;101038.09;5030114;28;1363;-66
2021/07/02 07:14:48;;;;;;;;;;;;;;;25.13;51.41;101045.16;5030151;28;656;-68
2021/07/02 07:17:35;;;;;;;;;;;;;;;25.15;51.40;101053.84;5029785;28;1560;-63
2021/07/02 07:20:20;;;;;;;;;;;;;;;25.15;51.23;101053.00;5030130;28;569;-62
2021/07/02 07:23:06;;;;;;;;;;;;;;;25.13;51.75;101050.47;5029846;28;1360;-61
2021/07/02 07:25:51;;;;;;;;;;;;;;;25.14;52.01;101052.16;5030322;28;640;-64
2021/07/02 07:28:38;;;;;;;;;;;;;;;25.18;52.34;101050.94;5029711;28;1978;-64
2021/07/02 07:31:23;;;;;;;;;;;;;;;25.18;51.90;101053.63;5029960;28;668;-62
2021/07/02 07:34:09;;;;;;;;;;;;;;;25.19;51.05;101055.31;5030040;28;1038;-61
2021/07/02 07:36:56;;;;;;;;;;;;;;;25.27;51.22;101058.22;5030195;28;1247;-63
2021/07/02 07:39:42;;;;;;;;;;;;;;;25.32;52.13;101058.69;5038287;28;1699;-62
2021/07/02 07:42:27;;;;;;;;;;;;;;;25.32;51.13;101050.69;5063840;28;1369;-63
2021/07/02 07:45:13;;;;;;;;;;;;;;;25.33;51.96;101057.72;5028107;28;715;-62
2021/07/02 07:48:01;;;;;;;;;;;;;;;25.33;52.58;101046.22;5044825;28;1340;-62
2021/07/02 07:50:50;;;;;;;;;;;;;;;25.33;52.24;101052.41;5068441;28;1961;-63
2021/07/02 07:53:35;;;;;;;;;;;;;;;25.33;52.29;101052.41;5068299;28;1326;-63
2021/07/02 07:56:20;;;;;;;;;;;;;;;25.34;52.60;101054.09;5060736;28;1224;-62
2021/07/02 07:59:06;;;;;;;;;;;;;;;25.35;52.73;101050.44;5048050;28;1066;-61
2021/07/02 08:01:51;;;;;;;;;;;;;;;25.39;52.48;101056.38;5048014;28;1274;-63
2021/07/02 08:04:37;;;;;;;;;;;;;;;25.45;52.38;101055.91;5049843;28;1138;-64
2021/07/02 08:07:23;;;;;;;;;;;;;;;25.48;52.37;101050.31;5048768;28;1212;-65
2021/07/02 08:10:10;;;;;;;;;;;;;;;25.48;52.49;101047.66;5049358;28;1902;-62
2021/07/02 08:12:55;;;;;;;;;;;;;;;25.46;52.77;101050.44;5049221;28;1424;-65
2021/07/02 08:15:41;;;;;;;;;;;;;;;25.45;50.81;101051.41;5048805;28;687;-68
2021/07/02 08:18:27;;;;;;;;;;;;;;;25.47;50.31;101044.13;5048844;28;1467;-68
2021/07/02 08:21:13;;;;;;;;;;;;;;;25.51;50.27;101045.63;5061619;28;643;-64
2021/07/02 08:23:58;;;;;;;;;;;;;;;25.54;50.61;101042.69;5049083;28;981;-67
2021/07/02 08:26:44;;;;;;;;;;;;;;;25.56;51.57;101039.94;5061558;28;1261;-65
2021/07/02 08:29:30;;;;;;;;;;;;;;;25.60;51.61;101045.84;5061071;28;1984;-62
2021/07/02 08:32:15;;;;;;;;;;;;;;;25.60;51.92;101036.03;5048467;28;1281;-62
2021/07/02 08:35:00;;;;;;;;;;;;;;;25.63;52.24;101037.59;5048585;28;691;-63
2021/07/02 08:37:45;;;;;;;;;;;;;;;25.63;51.95;101038.44;5048401;28;1280;-63
2021/07/02 08:40:31;;;;;;;;;;;;;;;25.66;51.55;101034.66;5048513;28;625;-62
2021/07/02 08:43:16;;;;;;;;;;;;;;;25.65;52.12;101033.00;5061384;28;1262;-61
2021/07/02 08:46:02;;;;;;;;;;;;;;;25.66;52.54;101032.84;5048318;28;640;-65
2021/07/02 08:48:48;;;;;;;;;;;;;;;25.69;52.07;101034.41;5048371;28;1237;-60
2021/07/02 08:51:34;;;;;;;;;;;;;;;25.67;52.31;101039.03;5048084;28;1232;-61
2021/07/02 08:54:19;;;;;;;;;;;;;;;25.68;52.09;101038.06;5048200;28;1032;-61
2021/07/02 08:57:04;;;;;;;;;;;;;;;25.67;52.41;101039.91;5047618;28;1274;-60
2021/07/02 08:59:50;;;;;;;;;;;;;;;25.69;52.31;101039.75;5060780;28;769;-59
2021/07/02 09:02:36;;;;;;;;;;;;;;;25.69;52.38;101042.41;5047754;28;1341;-60
2021/07/02 09:05:27;;;;;;;;;;;;;;;25.69;52.92;101043.28;5047521;28;791;-62
2021/07/02 09:08:13;;;;;;;;;;;;;;;25.70;53.14;101038.78;5047239;28;1282;-61
2021/07/02 09:11:02;;;;;;;;;;;;;;;25.71;53.33;101038.69;5046110;28;1969;-62
2021/07/02 09:13:48;;;;;;;;;;;;;;;25.74;52.94;101046.44;5047458;28;1213;-62
2021/07/02 09:16:37;;;;;;;;;;;;;;;25.73;53.00;101043.88;5047739;28;1211;-64
2021/07/02 09:19:28;;;;;;;;;;;;;;;25.74;53.25;101043.75;5048241;28;1437;-60
2021/07/02 09:22:15;;;;;;;;;;;;;;;25.78;53.46;101047.00;5047886;28;1248;-60
2021/07/02 09:25:11;;;;;;;;;;;;;;;25.74;53.79;101034.91;5047785;28;643;-60
2021/07/02 09:28:01;;;;;;;;;;;;;;;25.80;54.21;101051.28;5047312;28;1369;-61
2021/07/02 09:30:52;;;;;;;;;;;;;;;25.85;54.28;101050.88;5048517;28;1902;-63
2021/07/02 09:33:38;;;;;;;;;;;;;;;25.89;54.09;101055.00;5041675;28;1346;-63
2021/07/02 09:36:29;;;;;;;;;;;;;;;25.86;54.20;101055.25;5054108;28;1035;-59
2021/07/02 09:39:28;;;;;;;;;;;;;;;25.92;54.45;101052.94;5047922;28;1102;-63
2021/07/02 09:42:24;;;;;;;;;;;;;;;26.04;54.19;101054.59;5040544;28;1366;-68
2021/07/02 09:45:14;;;;;;;;;;;;;;;26.06;52.93;101057.13;5053282;28;1341;-66
2021/07/02 09:48:10;;;;;;;;;;;;;;;26.00;52.84;101049.59;5049756;28;1407;-67
2021/07/02 09:50:59;;;;;;;;;;;;;;;25.99;53.55;101058.63;5045219;28;1921;-64
2021/07/02 09:53:45;;;;;;;;;;;;;;;26.00;54.00;101050.47;5044136;28;1240;-63
2021/07/02 09:56:30;;;;;;;;;;;;;;;26.00;53.45;101055.81;5043116;28;1439;-64
2021/07/02 09:59:16;;;;;;;;;;;;;;;25.96;53.36;101049.00;5033395;28;1529;-65
2021/07/02 10:02:16;;;;;;;;;;;;;;;25.93;52.96;101056.44;5043072;28;1370;-65
2021/07/02 10:05:02;;;;;;;;;;;;;;;25.90;53.22;101046.03;5045739;28;991;-64
2021/07/02 10:07:55;;;;;;;;;;;;;;;25.89;52.97;101049.66;5047241;28;1233;-65
2021/07/02 10:10:41;;;;;;;;;;;;;;;25.88;52.81;101046.13;5046407;28;2237;-65
2021/07/02 10:13:27;;;;;;;;;;;;;;;25.86;52.67;101050.75;5046769;28;1300;-64
2021/07/02 10:16:14;;;;;;;;;;;;;;;25.86;52.92;101045.44;5047309;28;651;-64
2021/07/02 10:19:01;;;;;;;;;;;;;;;25.86;52.39;101049.91;5048355;28;1330;-64
2021/07/02 10:21:47;;;;;;;;;;;;;;;25.85;52.57;101043.72;5050944;28;1275;-64
2021/07/02 10:24:33;;;;;;;;;;;;;;;25.80;52.85;101029.91;5051182;28;1062;-65
2021/07/02 10:27:21;;;;;;;;;;;;;;;25.85;52.58;101041.06;5050787;28;1394;-65
2021/07/02 10:30:07;;;;;;;;;;;;;;;25.89;52.92;101029.16;5045097;28;1959;-61
2021/07/02 10:32:57;;;;;;;;;;;;;;;25.97;52.49;101028.50;5037939;28;1427;-65
2021/07/02 10:35:47;;;;;;;;;;;;;;;26.05;52.55;101020.72;5044423;28;1756;-61
2021/07/02 10:38:34;;;;;;;;;;;;;;;26.08;52.26;101028.50;5032516;28;1661;-63
2021/07/02 10:41:21;;;;;;;;;;;;;;;26.06;52.32;101031.28;5048207;28;651;-63
2021/07/02 10:44:10;;;;;;;;;;;;;;;26.04;52.53;101021.69;5046433;28;1783;-66
2021/07/02 10:47:03;;;;;;;;;;;;;;;26.02;52.27;101023.66;5041908;28;1488;-65
2021/07/02 10:49:50;;;;;;;;;;;;;;;25.99;51.62;101008.72;5041166;28;2036;-64
2021/07/02 10:52:41;;;;;;;;;;;;;;;25.98;50.71;101009.72;5040745;28;1820;-64
2021/07/02 10:55:30;;;;;;;;;;;;;;;25.97;50.80;101015.16;5044466;28;1546;-61
2021/07/02 10:58:16;;;;;;;;;;;;;;;25.97;50.02;101007.16;5051817;28;1331;-63
2021/07/02 11:01:09;;;;;;;;;;;;;;;25.96;50.40;101005.50;5030298;28;687;-64
2021/07/02 11:04:19;;;;;;;;;;;;;;;25.97;50.01;101004.50;5029262;28;1304;-61
2021/07/02 11:07:08;;;;;;;;;;;;;;;25.95;50.26;101009.97;5028761;28;1927;-63
2021/07/02 11:09:57;;;;;;;;;;;;;;;25.97;51.02;101010.69;5058351;28;1910;-61
2021/07/02 11:12:42;;;;;;;;;;;;;;;25.84;49.72;100982.50;5048645;28;1359;-64
2021/07/02 11:15:29;;;;;;;;;;;;;;;25.96;51.06;101008.16;5049023;28;594;-60
2021/07/02 11:18:15;;;;;;;;;;;;;;;25.95;49.72;101001.13;5048535;28;1446;-64
2021/07/02 11:21:11;;;;;;;;;;;;;;;25.95;49.57;101001.97;5061385;28;675;-63
2021/07/02 11:23:58;;;;;;;;;;;;;;;25.96;49.23;100997.47;5047623;28;1514;-63
2021/07/02 11:26:44;;;;;;;;;;;;;;;25.96;50.01;101008.16;5048559;28;1229;-63
2021/07/02 11:29:35;;;;;;;;;;;;;;;25.96;50.60;101000.16;5048358;28;2151;-65
2021/07/02 11:32:35;;;;;;;;;;;;;;;25.91;50.11;100986.31;5043583;28;1519;-69
2021/07/02 11:35:22;;;;;;;;;;;;;;;25.96;49.34;100998.31;5028355;28;815;-63
2021/07/02 11:38:13;;;;;;;;;;;;;;;25.96;50.67;100987.63;5036528;28;1289;-67
2021/07/02 11:41:07;;;;;;;;;;;;;;;25.97;50.56;100994.66;5044405;28;1092;-65
2021/07/02 11:43:53;;;;;;;;;;;;;;;25.97;50.79;100988.47;5046225;28;1478;-65
2021/07/02 11:46:40;;;;;;;;;;;;;;;25.98;50.84;100980.34;5046868;28;1381;-63
2021/07/02 11:49:26;;;;;;;;;;;;;;;25.98;51.10;100985.69;5045426;28;1369;-64
2021/07/02 11:52:11;;;;;;;;;;;;;;;25.99;51.11;100983.88;5046589;28;1323;-64
2021/07/02 11:54:56;;;;;;;;;;;;;;;26.01;51.13;100985.44;5044458;28;1186;-62
2021/07/02 11:57:42;;;;;;;;;;;;;;;26.01;51.50;100972.09;5045072;28;1319;-65
2021/07/02 12:00:34;;;;;;;;;;;;;;;26.05;51.49;100970.03;5044230;28;1107;-70
2021/07/02 12:03:20;;;;;;;;;;;;;;;26.15;51.74;100970.94;5045363;28;1319;-64
2021/07/02 12:06:06;;;;;;;;;;;;;;;26.13;52.28;100970.22;5043945;28;1719;-69
2021/07/02 12:09:11;;;;;;;;;;;;;;;26.13;52.57;100970.22;5046989;28;1446;-67
2021/07/02 12:12:00;;;;;;;;;;;;;;;26.15;52.42;100954.03;5046420;28;1914;-68
2021/07/02 12:14:45;;;;;;;;;;;;;;;26.15;52.64;100965.59;5045219;28;1159;-69
2021/07/02 12:17:31;;;;;;;;;;;;;;;26.16;52.73;100963.78;5042572;28;1371;-71
2021/07/02 12:20:16;;;;;;;;;;;;;;;26.13;52.81;100959.53;5045462;28;1099;-72
2021/07/02 12:23:03;;;;;;;;;;;;;;;26.13;53.16;100962.19;5039814;28;1371;-67
2021/07/02 12:26:08;;;;;;;;;;;;;;;26.14;53.04;100963.91;5043295;28;1197;-66
2021/07/02 12:28:58;;;;;;;;;;;;;;;26.13;53.03;100959.53;5058424;28;1431;-67
2021/07/02 12:31:44;;;;;;;;;;;;;;;26.02;52.20;100947.06;5044608;28;1971;-69
2021/07/02 12:34:32;;;;;;;;;;;;;;;25.91;51.26;100951.63;5045628;28;1126;-63
2021/07/02 12:37:18;;;;;;;;;;;;;;;25.85;50.79;100953.00;5046498;28;1333;-63
2021/07/02 12:40:04;;;;;;;;;;;;;;;25.80;50.07;100949.03;5037919;28;1466;-66
2021/07/02 12:42:49;;;;;;;;;;;;;;;25.74;49.78;100945.03;5044752;28;1359;-66
2021/07/02 12:45:48;;;;;;;;;;;;;;;25.71;49.98;100941.78;5010049;28;1293;-66
2021/07/02 12:48:34;;;;;;;;;;;;;;;25.67;49.76;100941.19;5021998;28;1379;-64
2021/07/02 12:51:34;;;;;;;;;;;;;;;25.68;48.92;100936.69;5020095;28;1973;-65
2021/07/02 12:57:26;;;;;;;;;;;;;;;25.60;47.97;100931.97;5022536;28;1297;-64
2021/07/02 13:00:23;;;;;;;;;;;;;;;25.63;48.69;100930.88;5021544;28;1077;-66
2021/07/02 13:03:13;;;;;;;;;;;;;;;25.70;48.10;100927.59;5022288;28;1393;-66
2021/07/02 13:06:11;;;;;;;;;;;;;;;25.72;48.38;100914.09;5022492;28;1330;-64
2021/07/02 13:08:56;;;;;;;;;;;;;;;25.70;48.12;100911.59;5022411;28;1408;-65
2021/07/02 13:11:42;;;;;;;;;;;;;;;25.70;47.83;100918.72;5021910;28;1983;-62
2021/07/02 13:14:28;;;;;;;;;;;;;;;25.72;48.00;100912.28;5019796;28;1334;-66
2021/07/02 13:17:14;;;;;;;;;;;;;;;25.72;47.60;100920.28;5020447;28;1283;-65
2021/07/02 13:19:59;;;;;;;;;;;;;;;25.69;47.08;100925.03;5006577;28;1231;-61
2021/07/02 13:23:03;;;;;;;;;;;;;;;25.62;46.96;100923.88;5030950;28;1293;-63
2021/07/02 13:26:09;;;;;;;;;;;;;;;25.60;47.00;100917.78;5046501;28;1058;-62
2021/07/02 13:29:04;;;;;;;;;;;;;;;25.57;46.87;100920.72;5042283;28;1324;-62
2021/07/02 13:31:51;;;;;;;;;;;;;;;25.54;47.11;100920.00;5056645;28;1979;-62
2021/07/02 13:34:39;;;;;;;;;;;;;;;25.51;46.58;100917.59;5045052;28;1177;-61
2021/07/02 13:37:26;;;;;;;;;;;;;;;25.45;46.56;100906.56;5039688;28;1387;-62
2021/07/02 13:40:12;;;;;;;;;;;;;;;25.49;46.68;100906.22;5043600;28;1068;-63
2021/07/02 13:43:01;;;;;;;;;;;;;;;25.46;46.70;100909.09;5042562;28;1300;-62
2021/07/02 13:46:03;;;;;;;;;;;;;;;25.43;46.39;100904.03;5042698;28;1221;-65
2021/07/02 13:48:48;;;;;;;;;;;;;;;25.43;46.14;100909.34;5042768;28;1209;-62
2021/07/02 13:51:34;;;;;;;;;;;;;;;25.43;46.38;100908.50;5043985;28;1959;-63
2021/07/02 13:54:20;;;;;;;;;;;;;;;25.39;45.80;100902.56;5047315;28;1067;-64
2021/07/02 13:57:06;;;;;;;;;;;;;;;25.37;45.83;100899.19;5043727;28;1296;-63
2021/07/02 13:59:54;;;;;;;;;;;;;;;25.36;45.90;100902.81;5044442;28;1196;-63
2021/07/02 14:02:39;;;;;;;;;;;;;;;25.38;45.88;100903.53;5047812;28;1321;-63
2021/07/02 14:05:25;;;;;;;;;;;;;;;25.36;46.87;100899.31;5046468;28;1075;-68
2021/07/02 14:08:11;;;;;;;;;;;;;;;25.34;45.96;100894.13;5045902;28;1247;-67
2021/07/02 14:10:56;;;;;;;;;;;;;;;25.38;45.83;100898.19;5047735;28;1914;-68
2021/07/02 14:13:41;;;;;;;;;;;;;;;25.38;45.73;100900.06;5047183;28;1309;-67
2021/07/02 14:16:27;;;;;;;;;;;;;;;25.37;46.30;100893.88;5046367;28;1051;-64
2021/07/02 14:19:12;;;;;;;;;;;;;;;25.35;45.62;100897.63;5047759;28;1444;-66
2021/07/02 14:21:57;;;;;;;;;;;;;;;25.34;45.62;100887.94;5047493;28;1308;-66
2021/07/02 14:24:43;;;;;;;;;;;;;;;25.27;45.93;100879.59;5050923;28;1104;-68
2021/07/02 14:27:28;;;;;;;;;;;;;;;25.33;45.78;100891.56;5044878;28;1240;-69
2021/07/02 14:30:16;;;;;;;;;;;;;;;25.30;45.54;100887.34;5045799;28;1922;-67
2021/07/02 14:33:02;;;;;;;;;;;;;;;25.30;45.48;100892.66;5048294;28;1232;-68
2021/07/02 14:35:48;;;;;;;;;;;;;;;25.30;45.50;100886.47;5045850;28;1240;-68